sensor_id;sensor_type;location;lat;lon;timestamp;P1;durP1;ratioP1;P2;durP2;ratioP2
79687;SDS011;69155;49.464;2.108;2023-10-08T00:00:02;8.25;;;4.57;;
79687;SDS011;69155;49.464;2.108;2023-10-08T00:02:47;6.85;;;4.20;;
79687;SDS011;69155;49.464;2.108;2023-10-08T00:05:12;10.33;;;4.47;;
79687;SDS011;69155;49.464;2.108;2023-10-08T00:07:41;7.25;;;4.30;;
79687;SDS011;69155;49.464;2.108;2023-10-08T00:10:08;7.40;;;4.32;;
79687;SDS011;69155;49.464;2.108;2023-10-08T00:12:33;8.70;;;4.18;;
79687;SDS011;69155;49.464;2.108;2023-10-08T00:14:58;9.57;;;4.05;;
79687;SDS011;69155;49.464;2.108;2023-10-08T00:17:28;9.20;;;4.50;;
79687;SDS011;69155;49.464;2.108;2023-10-08T00:19:53;8.02;;;4.50;;
79687;SDS011;69155;49.464;2.108;2023-10-08T00:22:19;10.10;;;5.07;;
79687;SDS011;69155;49.464;2.108;2023-10-08T00:24:44;10.07;;;4.97;;
79687;SDS011;69155;49.464;2.108;2023-10-08T00:27:11;8.73;;;4.90;;
79687;SDS011;69155;49.464;2.108;2023-10-08T00:29:40;12.55;;;5.22;;
79687;SDS011;69155;49.464;2.108;2023-10-08T00:32:07;9.63;;;5.05;;
79687;SDS011;69155;49.464;2.108;2023-10-08T00:34:40;13.77;;;5.80;;
79687;SDS011;69155;49.464;2.108;2023-10-08T00:37:06;9.25;;;5.00;;
79687;SDS011;69155;49.464;2.108;2023-10-08T00:39:34;8.82;;;5.13;;
79687;SDS011;69155;49.464;2.108;2023-10-08T00:42:02;9.70;;;5.32;;
79687;SDS011;69155;49.464;2.108;2023-10-08T00:44:29;7.40;;;4.75;;
79687;SDS011;69155;49.464;2.108;2023-10-08T00:46:55;9.20;;;4.75;;
79687;SDS011;69155;49.464;2.108;2023-10-08T00:49:22;8.43;;;4.93;;
79687;SDS011;69155;49.464;2.108;2023-10-08T00:51:48;10.48;;;5.05;;
79687;SDS011;69155;49.464;2.108;2023-10-08T00:54:26;7.13;;;4.93;;
79687;SDS011;69155;49.464;2.108;2023-10-08T00:56:57;8.95;;;4.88;;
79687;SDS011;69155;49.464;2.108;2023-10-08T00:59:23;8.57;;;4.90;;
79687;SDS011;69155;49.464;2.108;2023-10-08T01:01:52;10.88;;;5.95;;
79687;SDS011;69155;49.464;2.108;2023-10-08T01:04:31;7.15;;;4.72;;
79687;SDS011;69155;49.464;2.108;2023-10-08T01:07:01;14.70;;;5.60;;
79687;SDS011;69155;49.464;2.108;2023-10-08T01:09:38;11.02;;;4.75;;
79687;SDS011;69155;49.464;2.108;2023-10-08T01:14:55;9.63;;;5.72;;
79687;SDS011;69155;49.464;2.108;2023-10-08T01:17:29;8.25;;;5.13;;
79687;SDS011;69155;49.464;2.108;2023-10-08T01:19:57;11.13;;;5.20;;
79687;SDS011;69155;49.464;2.108;2023-10-08T01:22:33;8.68;;;4.57;;
79687;SDS011;69155;49.464;2.108;2023-10-08T01:24:59;8.37;;;5.67;;
79687;SDS011;69155;49.464;2.108;2023-10-08T01:27:29;11.52;;;5.53;;
79687;SDS011;69155;49.464;2.108;2023-10-08T01:29:54;9.23;;;4.93;;
79687;SDS011;69155;49.464;2.108;2023-10-08T01:32:20;13.90;;;5.43;;
79687;SDS011;69155;49.464;2.108;2023-10-08T01:34:49;8.30;;;4.80;;
79687;SDS011;69155;49.464;2.108;2023-10-08T01:37:15;9.15;;;5.75;;
79687;SDS011;69155;49.464;2.108;2023-10-08T01:39:46;14.18;;;5.43;;
79687;SDS011;69155;49.464;2.108;2023-10-08T01:42:13;8.45;;;4.70;;
79687;SDS011;69155;49.464;2.108;2023-10-08T01:44:46;10.15;;;5.43;;
79687;SDS011;69155;49.464;2.108;2023-10-08T01:47:12;10.45;;;5.05;;
79687;SDS011;69155;49.464;2.108;2023-10-08T01:49:37;9.73;;;4.65;;
79687;SDS011;69155;49.464;2.108;2023-10-08T01:52:04;8.25;;;5.13;;
79687;SDS011;69155;49.464;2.108;2023-10-08T01:54:32;8.45;;;5.38;;
79687;SDS011;69155;49.464;2.108;2023-10-08T01:57:01;10.23;;;5.28;;
79687;SDS011;69155;49.464;2.108;2023-10-08T01:59:26;13.70;;;5.65;;
79687;SDS011;69155;49.464;2.108;2023-10-08T02:01:51;14.63;;;4.73;;
79687;SDS011;69155;49.464;2.108;2023-10-08T02:04:20;10.90;;;5.25;;
79687;SDS011;69155;49.464;2.108;2023-10-08T02:06:46;9.43;;;5.13;;
79687;SDS011;69155;49.464;2.108;2023-10-08T02:09:12;10.25;;;4.55;;
79687;SDS011;69155;49.464;2.108;2023-10-08T02:11:42;8.85;;;5.32;;
79687;SDS011;69155;49.464;2.108;2023-10-08T02:14:08;11.40;;;4.65;;
79687;SDS011;69155;49.464;2.108;2023-10-08T02:16:36;7.63;;;4.53;;
79687;SDS011;69155;49.464;2.108;2023-10-08T02:19:02;8.68;;;5.03;;
79687;SDS011;69155;49.464;2.108;2023-10-08T02:21:28;8.75;;;4.43;;
79687;SDS011;69155;49.464;2.108;2023-10-08T02:23:54;9.73;;;4.47;;
79687;SDS011;69155;49.464;2.108;2023-10-08T02:26:19;11.63;;;4.80;;
79687;SDS011;69155;49.464;2.108;2023-10-08T02:28:44;7.67;;;4.53;;
79687;SDS011;69155;49.464;2.108;2023-10-08T02:31:10;6.60;;;3.92;;
79687;SDS011;69155;49.464;2.108;2023-10-08T02:33:38;11.20;;;5.07;;
79687;SDS011;69155;49.464;2.108;2023-10-08T02:36:03;8.15;;;4.32;;
79687;SDS011;69155;49.464;2.108;2023-10-08T02:38:29;10.15;;;4.82;;
79687;SDS011;69155;49.464;2.108;2023-10-08T02:40:55;11.55;;;4.57;;
79687;SDS011;69155;49.464;2.108;2023-10-08T02:43:21;7.38;;;4.43;;
79687;SDS011;69155;49.464;2.108;2023-10-08T02:45:48;6.78;;;4.63;;
79687;SDS011;69155;49.464;2.108;2023-10-08T02:48:14;8.27;;;4.93;;
79687;SDS011;69155;49.464;2.108;2023-10-08T02:50:40;10.13;;;4.93;;
79687;SDS011;69155;49.464;2.108;2023-10-08T02:53:06;10.38;;;5.15;;
79687;SDS011;69155;49.464;2.108;2023-10-08T02:55:38;8.57;;;5.28;;
79687;SDS011;69155;49.464;2.108;2023-10-08T02:58:09;9.32;;;4.05;;
79687;SDS011;69155;49.464;2.108;2023-10-08T03:00:39;8.65;;;4.65;;
79687;SDS011;69155;49.464;2.108;2023-10-08T03:03:05;7.93;;;5.05;;
79687;SDS011;69155;49.464;2.108;2023-10-08T03:05:34;9.45;;;5.13;;
79687;SDS011;69155;49.464;2.108;2023-10-08T03:08:01;9.85;;;4.80;;
79687;SDS011;69155;49.464;2.108;2023-10-08T03:10:26;10.77;;;6.28;;
79687;SDS011;69155;49.464;2.108;2023-10-08T03:12:58;17.20;;;5.40;;
79687;SDS011;69155;49.464;2.108;2023-10-08T03:15:30;11.38;;;5.57;;
79687;SDS011;69155;49.464;2.108;2023-10-08T03:17:56;8.55;;;4.72;;
79687;SDS011;69155;49.464;2.108;2023-10-08T03:20:35;10.32;;;5.20;;
79687;SDS011;69155;49.464;2.108;2023-10-08T03:23:07;8.55;;;4.45;;
79687;SDS011;69155;49.464;2.108;2023-10-08T03:25:59;8.63;;;5.18;;
79687;SDS011;69155;49.464;2.108;2023-10-08T03:28:35;8.05;;;4.75;;
79687;SDS011;69155;49.464;2.108;2023-10-08T03:31:01;8.50;;;4.88;;
79687;SDS011;69155;49.464;2.108;2023-10-08T03:33:33;7.90;;;4.53;;
79687;SDS011;69155;49.464;2.108;2023-10-08T03:36:00;10.57;;;4.68;;
79687;SDS011;69155;49.464;2.108;2023-10-08T03:38:25;11.43;;;5.10;;
79687;SDS011;69155;49.464;2.108;2023-10-08T03:41:09;9.15;;;4.82;;
79687;SDS011;69155;49.464;2.108;2023-10-08T03:43:35;9.20;;;4.05;;
79687;SDS011;69155;49.464;2.108;2023-10-08T03:46:08;9.73;;;4.50;;
79687;SDS011;69155;49.464;2.108;2023-10-08T03:48:42;8.48;;;4.70;;
79687;SDS011;69155;49.464;2.108;2023-10-08T03:51:10;8.38;;;5.15;;
79687;SDS011;69155;49.464;2.108;2023-10-08T03:53:37;9.77;;;4.82;;
79687;SDS011;69155;49.464;2.108;2023-10-08T03:56:22;6.57;;;3.70;;
79687;SDS011;69155;49.464;2.108;2023-10-08T03:58:47;9.73;;;4.33;;
79687;SDS011;69155;49.464;2.108;2023-10-08T04:01:12;10.77;;;4.80;;
79687;SDS011;69155;49.464;2.108;2023-10-08T04:03:44;6.78;;;4.90;;
79687;SDS011;69155;49.464;2.108;2023-10-08T04:06:21;11.93;;;4.90;;
79687;SDS011;69155;49.464;2.108;2023-10-08T04:08:59;8.02;;;4.50;;
79687;SDS011;69155;49.464;2.108;2023-10-08T04:11:34;9.35;;;4.63;;
79687;SDS011;69155;49.464;2.108;2023-10-08T04:14:17;9.02;;;4.32;;
79687;SDS011;69155;49.464;2.108;2023-10-08T04:16:42;14.70;;;5.43;;
79687;SDS011;69155;49.464;2.108;2023-10-08T04:19:08;10.07;;;4.90;;
79687;SDS011;69155;49.464;2.108;2023-10-08T04:21:43;10.35;;;4.90;;
79687;SDS011;69155;49.464;2.108;2023-10-08T04:24:08;11.77;;;4.43;;
79687;SDS011;69155;49.464;2.108;2023-10-08T04:26:37;11.52;;;4.93;;
79687;SDS011;69155;49.464;2.108;2023-10-08T04:29:05;9.07;;;4.57;;
79687;SDS011;69155;49.464;2.108;2023-10-08T04:31:32;9.40;;;4.35;;
79687;SDS011;69155;49.464;2.108;2023-10-08T04:34:11;8.98;;;4.68;;
79687;SDS011;69155;49.464;2.108;2023-10-08T04:36:47;9.68;;;4.60;;
79687;SDS011;69155;49.464;2.108;2023-10-08T04:39:21;8.68;;;4.70;;
79687;SDS011;69155;49.464;2.108;2023-10-08T04:41:48;6.15;;;4.10;;
79687;SDS011;69155;49.464;2.108;2023-10-08T04:44:18;9.38;;;5.18;;
79687;SDS011;69155;49.464;2.108;2023-10-08T04:46:44;18.67;;;4.63;;
79687;SDS011;69155;49.464;2.108;2023-10-08T04:49:15;9.70;;;4.40;;
79687;SDS011;69155;49.464;2.108;2023-10-08T04:51:58;6.97;;;3.92;;
79687;SDS011;69155;49.464;2.108;2023-10-08T04:54:27;8.02;;;4.05;;
79687;SDS011;69155;49.464;2.108;2023-10-08T04:57:01;8.93;;;4.70;;
79687;SDS011;69155;49.464;2.108;2023-10-08T04:59:30;10.43;;;4.82;;
79687;SDS011;69155;49.464;2.108;2023-10-08T05:02:02;15.75;;;7.30;;
79687;SDS011;69155;49.464;2.108;2023-10-08T05:04:48;13.98;;;8.00;;
79687;SDS011;69155;49.464;2.108;2023-10-08T05:07:17;19.05;;;8.98;;
79687;SDS011;69155;49.464;2.108;2023-10-08T05:09:46;13.68;;;7.68;;
79687;SDS011;69155;49.464;2.108;2023-10-08T05:12:20;18.00;;;8.00;;
79687;SDS011;69155;49.464;2.108;2023-10-08T05:15:10;15.98;;;8.35;;
79687;SDS011;69155;49.464;2.108;2023-10-08T05:17:39;12.93;;;7.28;;
79687;SDS011;69155;49.464;2.108;2023-10-08T05:20:17;14.07;;;7.07;;
79687;SDS011;69155;49.464;2.108;2023-10-08T05:22:55;15.80;;;6.95;;
79687;SDS011;69155;49.464;2.108;2023-10-08T05:25:49;12.80;;;6.38;;
79687;SDS011;69155;49.464;2.108;2023-10-08T05:28:37;10.35;;;6.40;;
79687;SDS011;69155;49.464;2.108;2023-10-08T05:31:26;11.15;;;5.93;;
79687;SDS011;69155;49.464;2.108;2023-10-08T05:34:06;11.43;;;5.82;;
79687;SDS011;69155;49.464;2.108;2023-10-08T05:36:57;10.50;;;5.00;;
79687;SDS011;69155;49.464;2.108;2023-10-08T05:39:28;16.15;;;5.30;;
79687;SDS011;69155;49.464;2.108;2023-10-08T05:42:07;11.77;;;5.47;;
79687;SDS011;69155;49.464;2.108;2023-10-08T05:44:56;8.82;;;4.38;;
79687;SDS011;69155;49.464;2.108;2023-10-08T05:47:33;9.65;;;5.22;;
79687;SDS011;69155;49.464;2.108;2023-10-08T05:49:59;11.50;;;5.00;;
79687;SDS011;69155;49.464;2.108;2023-10-08T05:52:46;6.65;;;4.28;;
79687;SDS011;69155;49.464;2.108;2023-10-08T05:55:27;6.78;;;4.32;;
79687;SDS011;69155;49.464;2.108;2023-10-08T05:58:05;8.70;;;4.78;;
79687;SDS011;69155;49.464;2.108;2023-10-08T06:00:49;9.55;;;4.30;;
79687;SDS011;69155;49.464;2.108;2023-10-08T06:03:14;8.57;;;4.40;;
79687;SDS011;69155;49.464;2.108;2023-10-08T06:06:02;8.25;;;4.55;;
79687;SDS011;69155;49.464;2.108;2023-10-08T06:08:37;10.00;;;4.97;;
79687;SDS011;69155;49.464;2.108;2023-10-08T06:11:33;9.93;;;4.85;;
79687;SDS011;69155;49.464;2.108;2023-10-08T06:14:07;9.68;;;4.55;;
79687;SDS011;69155;49.464;2.108;2023-10-08T06:16:42;10.68;;;4.68;;
79687;SDS011;69155;49.464;2.108;2023-10-08T06:19:08;7.55;;;5.00;;
79687;SDS011;69155;49.464;2.108;2023-10-08T06:21:38;6.20;;;4.20;;
79687;SDS011;69155;49.464;2.108;2023-10-08T06:24:07;6.50;;;4.22;;
79687;SDS011;69155;49.464;2.108;2023-10-08T06:29:47;8.68;;;4.57;;
79687;SDS011;69155;49.464;2.108;2023-10-08T06:35:16;6.97;;;4.30;;
79687;SDS011;69155;49.464;2.108;2023-10-08T06:38:07;8.27;;;5.22;;
79687;SDS011;69155;49.464;2.108;2023-10-08T06:40:37;8.32;;;4.75;;
79687;SDS011;69155;49.464;2.108;2023-10-08T06:43:06;9.98;;;5.70;;
79687;SDS011;69155;49.464;2.108;2023-10-08T06:45:43;10.20;;;5.68;;
79687;SDS011;69155;49.464;2.108;2023-10-08T06:48:09;7.38;;;4.68;;
79687;SDS011;69155;49.464;2.108;2023-10-08T06:50:34;12.40;;;5.90;;
79687;SDS011;69155;49.464;2.108;2023-10-08T06:53:01;8.00;;;4.72;;
79687;SDS011;69155;49.464;2.108;2023-10-08T06:55:33;7.75;;;4.55;;
79687;SDS011;69155;49.464;2.108;2023-10-08T06:58:00;7.22;;;4.65;;
79687;SDS011;69155;49.464;2.108;2023-10-08T07:00:25;11.15;;;5.55;;
79687;SDS011;69155;49.464;2.108;2023-10-08T07:03:09;13.30;;;6.05;;
79687;SDS011;69155;49.464;2.108;2023-10-08T07:05:36;11.07;;;5.68;;
79687;SDS011;69155;49.464;2.108;2023-10-08T07:08:08;11.52;;;5.40;;
79687;SDS011;69155;49.464;2.108;2023-10-08T07:10:33;8.70;;;5.50;;
79687;SDS011;69155;49.464;2.108;2023-10-08T07:13:02;8.68;;;5.28;;
79687;SDS011;69155;49.464;2.108;2023-10-08T07:15:33;8.32;;;5.65;;
79687;SDS011;69155;49.464;2.108;2023-10-08T07:17:58;8.15;;;5.10;;
79687;SDS011;69155;49.464;2.108;2023-10-08T07:20:33;11.20;;;6.65;;
79687;SDS011;69155;49.464;2.108;2023-10-08T07:23:03;8.98;;;6.00;;
79687;SDS011;69155;49.464;2.108;2023-10-08T07:28:02;11.10;;;4.88;;
79687;SDS011;69155;49.464;2.108;2023-10-08T07:30:35;10.63;;;5.40;;
79687;SDS011;69155;49.464;2.108;2023-10-08T07:33:03;10.95;;;5.72;;
79687;SDS011;69155;49.464;2.108;2023-10-08T07:35:29;11.48;;;6.07;;
79687;SDS011;69155;49.464;2.108;2023-10-08T07:37:55;10.30;;;5.20;;
79687;SDS011;69155;49.464;2.108;2023-10-08T07:40:20;8.07;;;4.67;;
79687;SDS011;69155;49.464;2.108;2023-10-08T07:42:54;11.27;;;5.30;;
79687;SDS011;69155;49.464;2.108;2023-10-08T07:45:19;12.83;;;4.90;;
79687;SDS011;69155;49.464;2.108;2023-10-08T07:47:49;9.43;;;5.45;;
79687;SDS011;69155;49.464;2.108;2023-10-08T07:50:18;8.68;;;5.95;;
79687;SDS011;69155;49.464;2.108;2023-10-08T07:52:44;9.40;;;5.28;;
79687;SDS011;69155;49.464;2.108;2023-10-08T07:55:10;17.50;;;6.60;;
79687;SDS011;69155;49.464;2.108;2023-10-08T07:57:35;12.73;;;5.95;;
79687;SDS011;69155;49.464;2.108;2023-10-08T08:00:00;12.97;;;6.40;;
79687;SDS011;69155;49.464;2.108;2023-10-08T08:02:47;12.20;;;6.15;;
79687;SDS011;69155;49.464;2.108;2023-10-08T08:05:13;11.68;;;6.70;;
79687;SDS011;69155;49.464;2.108;2023-10-08T08:07:42;9.38;;;6.53;;
79687;SDS011;69155;49.464;2.108;2023-10-08T08:10:08;10.32;;;6.45;;
79687;SDS011;69155;49.464;2.108;2023-10-08T08:12:36;12.60;;;6.93;;
79687;SDS011;69155;49.464;2.108;2023-10-08T08:15:02;9.30;;;6.05;;
79687;SDS011;69155;49.464;2.108;2023-10-08T08:17:39;14.52;;;6.07;;
79687;SDS011;69155;49.464;2.108;2023-10-08T08:20:05;11.63;;;6.10;;
79687;SDS011;69155;49.464;2.108;2023-10-08T08:22:42;9.88;;;5.15;;
79687;SDS011;69155;49.464;2.108;2023-10-08T08:25:10;13.07;;;5.70;;
79687;SDS011;69155;49.464;2.108;2023-10-08T08:27:51;12.95;;;6.32;;
79687;SDS011;69155;49.464;2.108;2023-10-08T08:30:18;14.85;;;6.72;;
79687;SDS011;69155;49.464;2.108;2023-10-08T08:32:44;10.43;;;6.47;;
79687;SDS011;69155;49.464;2.108;2023-10-08T08:35:09;9.20;;;6.47;;
79687;SDS011;69155;49.464;2.108;2023-10-08T09:02:55;11.57;;;6.45;;
79687;SDS011;69155;49.464;2.108;2023-10-08T09:05:35;10.88;;;7.25;;
79687;SDS011;69155;49.464;2.108;2023-10-08T09:18:51;11.65;;;5.75;;
79687;SDS011;69155;49.464;2.108;2023-10-08T09:21:21;10.13;;;5.60;;
79687;SDS011;69155;49.464;2.108;2023-10-08T09:23:51;12.55;;;6.00;;
79687;SDS011;69155;49.464;2.108;2023-10-08T09:29:22;13.68;;;6.63;;
79687;SDS011;69155;49.464;2.108;2023-10-08T09:32:13;12.98;;;5.78;;
79687;SDS011;69155;49.464;2.108;2023-10-08T09:34:56;9.82;;;5.75;;
79687;SDS011;69155;49.464;2.108;2023-10-08T09:37:38;11.00;;;6.05;;
79687;SDS011;69155;49.464;2.108;2023-10-08T09:40:36;9.55;;;5.43;;
79687;SDS011;69155;49.464;2.108;2023-10-08T09:43:27;9.05;;;5.03;;
79687;SDS011;69155;49.464;2.108;2023-10-08T09:46:19;8.15;;;5.25;;
79687;SDS011;69155;49.464;2.108;2023-10-08T09:51:46;10.15;;;5.60;;
79687;SDS011;69155;49.464;2.108;2023-10-08T09:54:25;8.25;;;4.70;;
79687;SDS011;69155;49.464;2.108;2023-10-08T09:56:59;11.80;;;5.90;;
79687;SDS011;69155;49.464;2.108;2023-10-08T10:02:59;11.93;;;5.88;;
79687;SDS011;69155;49.464;2.108;2023-10-08T10:05:32;10.50;;;5.57;;
79687;SDS011;69155;49.464;2.108;2023-10-08T10:08:08;8.98;;;5.43;;
79687;SDS011;69155;49.464;2.108;2023-10-08T10:10:57;18.00;;;5.78;;
79687;SDS011;69155;49.464;2.108;2023-10-08T10:25:33;10.38;;;5.90;;
79687;SDS011;69155;49.464;2.108;2023-10-08T10:33:58;12.00;;;4.78;;
79687;SDS011;69155;49.464;2.108;2023-10-08T10:36:47;8.90;;;5.10;;
79687;SDS011;69155;49.464;2.108;2023-10-08T10:42:29;15.70;;;5.43;;
79687;SDS011;69155;49.464;2.108;2023-10-08T10:51:44;9.88;;;5.60;;
79687;SDS011;69155;49.464;2.108;2023-10-08T10:54:27;7.45;;;4.78;;
79687;SDS011;69155;49.464;2.108;2023-10-08T10:57:01;11.60;;;4.43;;
79687;SDS011;69155;49.464;2.108;2023-10-08T10:59:42;9.73;;;4.47;;
79687;SDS011;69155;49.464;2.108;2023-10-08T11:02:21;6.60;;;4.80;;
79687;SDS011;69155;49.464;2.108;2023-10-08T11:05:16;8.80;;;4.63;;
79687;SDS011;69155;49.464;2.108;2023-10-08T11:10:37;11.25;;;4.95;;
79687;SDS011;69155;49.464;2.108;2023-10-08T11:16:04;7.93;;;4.70;;
79687;SDS011;69155;49.464;2.108;2023-10-08T11:18:42;8.15;;;4.70;;
79687;SDS011;69155;49.464;2.108;2023-10-08T11:24:42;8.57;;;4.75;;
79687;SDS011;69155;49.464;2.108;2023-10-08T11:27:31;9.10;;;4.60;;
79687;SDS011;69155;49.464;2.108;2023-10-08T11:30:05;6.97;;;4.68;;
79687;SDS011;69155;49.464;2.108;2023-10-08T11:32:43;7.63;;;4.63;;
79687;SDS011;69155;49.464;2.108;2023-10-08T11:35:14;10.60;;;5.22;;
79687;SDS011;69155;49.464;2.108;2023-10-08T11:37:44;9.50;;;4.90;;
79687;SDS011;69155;49.464;2.108;2023-10-08T11:43:22;8.00;;;3.97;;
79687;SDS011;69155;49.464;2.108;2023-10-08T11:46:00;8.20;;;5.10;;
79687;SDS011;69155;49.464;2.108;2023-10-08T11:51:46;6.05;;;3.92;;
79687;SDS011;69155;49.464;2.108;2023-10-08T11:54:23;5.60;;;3.35;;
79687;SDS011;69155;49.464;2.108;2023-10-08T11:56:56;7.03;;;3.67;;
79687;SDS011;69155;49.464;2.108;2023-10-08T11:59:45;6.40;;;3.90;;
79687;SDS011;69155;49.464;2.108;2023-10-08T12:06:03;7.32;;;3.45;;
79687;SDS011;69155;49.464;2.108;2023-10-08T12:24:22;8.02;;;3.85;;
79687;SDS011;69155;49.464;2.108;2023-10-08T12:27:12;6.93;;;3.63;;
79687;SDS011;69155;49.464;2.108;2023-10-08T12:30:12;7.28;;;3.53;;
79687;SDS011;69155;49.464;2.108;2023-10-08T12:33:10;7.07;;;3.95;;
79687;SDS011;69155;49.464;2.108;2023-10-08T12:45:22;5.20;;;2.92;;
79687;SDS011;69155;49.464;2.108;2023-10-08T12:51:11;11.80;;;3.15;;
79687;SDS011;69155;49.464;2.108;2023-10-08T12:57:09;6.63;;;3.53;;
79687;SDS011;69155;49.464;2.108;2023-10-08T13:00:02;16.88;;;3.67;;
79687;SDS011;69155;49.464;2.108;2023-10-08T13:03:01;8.93;;;4.28;;
79687;SDS011;69155;49.464;2.108;2023-10-08T13:06:11;6.25;;;3.60;;
79687;SDS011;69155;49.464;2.108;2023-10-08T13:12:16;9.07;;;3.53;;
79687;SDS011;69155;49.464;2.108;2023-10-08T13:14:51;5.90;;;3.22;;
79687;SDS011;69155;49.464;2.108;2023-10-08T13:17:35;6.22;;;3.65;;
79687;SDS011;69155;49.464;2.108;2023-10-08T13:26:46;6.10;;;2.95;;
79687;SDS011;69155;49.464;2.108;2023-10-08T13:35:45;7.63;;;3.00;;
79687;SDS011;69155;49.464;2.108;2023-10-08T13:38:18;11.77;;;3.63;;
79687;SDS011;69155;49.464;2.108;2023-10-08T14:09:54;10.75;;;4.25;;
79687;SDS011;69155;49.464;2.108;2023-10-08T14:18:20;5.88;;;3.00;;
79687;SDS011;69155;49.464;2.108;2023-10-08T14:24:58;7.18;;;3.08;;
79687;SDS011;69155;49.464;2.108;2023-10-08T14:34:10;6.75;;;3.30;;
79687;SDS011;69155;49.464;2.108;2023-10-08T14:37:01;6.43;;;2.85;;
79687;SDS011;69155;49.464;2.108;2023-10-08T14:39:52;7.03;;;3.47;;
79687;SDS011;69155;49.464;2.108;2023-10-08T14:42:57;14.82;;;3.30;;
79687;SDS011;69155;49.464;2.108;2023-10-08T14:48:57;12.10;;;3.78;;
79687;SDS011;69155;49.464;2.108;2023-10-08T14:52:18;8.18;;;4.00;;
79687;SDS011;69155;49.464;2.108;2023-10-08T15:01:54;8.07;;;3.20;;
79687;SDS011;69155;49.464;2.108;2023-10-08T15:04:49;8.85;;;3.42;;
79687;SDS011;69155;49.464;2.108;2023-10-08T15:07:50;5.15;;;3.30;;
79687;SDS011;69155;49.464;2.108;2023-10-08T15:10:41;10.02;;;3.50;;
79687;SDS011;69155;49.464;2.108;2023-10-08T15:16:13;9.57;;;4.03;;
79687;SDS011;69155;49.464;2.108;2023-10-08T15:21:55;10.70;;;3.50;;
79687;SDS011;69155;49.464;2.108;2023-10-08T15:24:20;6.67;;;3.87;;
79687;SDS011;69155;49.464;2.108;2023-10-08T15:26:57;8.68;;;3.50;;
79687;SDS011;69155;49.464;2.108;2023-10-08T15:32:13;8.45;;;3.40;;
79687;SDS011;69155;49.464;2.108;2023-10-08T15:34:38;18.67;;;4.63;;
79687;SDS011;69155;49.464;2.108;2023-10-08T15:37:04;8.82;;;3.35;;
79687;SDS011;69155;49.464;2.108;2023-10-08T15:39:29;17.07;;;3.73;;
79687;SDS011;69155;49.464;2.108;2023-10-08T15:41:54;7.10;;;3.53;;
79687;SDS011;69155;49.464;2.108;2023-10-08T15:44:20;6.32;;;3.22;;
79687;SDS011;69155;49.464;2.108;2023-10-08T15:46:46;10.10;;;3.80;;
79687;SDS011;69155;49.464;2.108;2023-10-08T15:49:12;12.05;;;3.42;;
79687;SDS011;69155;49.464;2.108;2023-10-08T15:51:37;7.80;;;3.20;;
79687;SDS011;69155;49.464;2.108;2023-10-08T15:54:03;11.68;;;4.30;;
79687;SDS011;69155;49.464;2.108;2023-10-08T15:56:31;12.80;;;3.40;;
79687;SDS011;69155;49.464;2.108;2023-10-08T15:58:56;8.43;;;3.13;;
79687;SDS011;69155;49.464;2.108;2023-10-08T16:01:24;7.95;;;3.58;;
79687;SDS011;69155;49.464;2.108;2023-10-08T16:03:51;12.98;;;3.33;;
79687;SDS011;69155;49.464;2.108;2023-10-08T16:06:17;9.82;;;3.58;;
79687;SDS011;69155;49.464;2.108;2023-10-08T16:08:43;9.25;;;3.60;;
79687;SDS011;69155;49.464;2.108;2023-10-08T16:11:11;10.05;;;3.85;;
79687;SDS011;69155;49.464;2.108;2023-10-08T16:13:36;9.80;;;3.28;;
79687;SDS011;69155;49.464;2.108;2023-10-08T16:16:07;8.85;;;3.55;;
79687;SDS011;69155;49.464;2.108;2023-10-08T16:18:46;15.05;;;4.35;;
79687;SDS011;69155;49.464;2.108;2023-10-08T16:21:13;9.52;;;3.75;;
79687;SDS011;69155;49.464;2.108;2023-10-08T16:23:39;8.45;;;3.63;;
79687;SDS011;69155;49.464;2.108;2023-10-08T16:26:06;10.25;;;3.63;;
79687;SDS011;69155;49.464;2.108;2023-10-08T16:28:32;12.13;;;4.35;;
79687;SDS011;69155;49.464;2.108;2023-10-08T16:30:59;7.85;;;3.60;;
79687;SDS011;69155;49.464;2.108;2023-10-08T16:33:29;10.25;;;3.58;;
79687;SDS011;69155;49.464;2.108;2023-10-08T16:35:55;11.45;;;3.80;;
79687;SDS011;69155;49.464;2.108;2023-10-08T16:38:21;7.72;;;4.05;;
79687;SDS011;69155;49.464;2.108;2023-10-08T16:40:46;19.27;;;7.10;;
79687;SDS011;69155;49.464;2.108;2023-10-08T16:43:12;30.92;;;13.27;;
79687;SDS011;69155;49.464;2.108;2023-10-08T16:45:41;32.65;;;10.98;;
79687;SDS011;69155;49.464;2.108;2023-10-08T16:48:08;21.35;;;7.60;;
79687;SDS011;69155;49.464;2.108;2023-10-08T16:50:36;19.50;;;6.43;;
79687;SDS011;69155;49.464;2.108;2023-10-08T16:53:01;12.50;;;5.40;;
79687;SDS011;69155;49.464;2.108;2023-10-08T16:55:34;16.15;;;5.68;;
79687;SDS011;69155;49.464;2.108;2023-10-08T16:58:05;11.07;;;5.35;;
79687;SDS011;69155;49.464;2.108;2023-10-08T17:00:30;13.75;;;5.43;;
79687;SDS011;69155;49.464;2.108;2023-10-08T17:05:53;11.43;;;4.43;;
79687;SDS011;69155;49.464;2.108;2023-10-08T17:08:20;11.13;;;4.28;;
79687;SDS011;69155;49.464;2.108;2023-10-08T17:10:45;7.20;;;4.03;;
79687;SDS011;69155;49.464;2.108;2023-10-08T17:13:12;15.20;;;6.30;;
79687;SDS011;69155;49.464;2.108;2023-10-08T17:15:37;13.60;;;5.85;;
79687;SDS011;69155;49.464;2.108;2023-10-08T17:18:03;12.20;;;5.22;;
79687;SDS011;69155;49.464;2.108;2023-10-08T17:20:30;6.93;;;3.80;;
79687;SDS011;69155;49.464;2.108;2023-10-08T17:22:55;8.70;;;3.63;;
79687;SDS011;69155;49.464;2.108;2023-10-08T17:25:21;16.87;;;3.83;;
79687;SDS011;69155;49.464;2.108;2023-10-08T17:27:46;10.60;;;4.10;;
79687;SDS011;69155;49.464;2.108;2023-10-08T17:30:14;16.92;;;3.97;;
79687;SDS011;69155;49.464;2.108;2023-10-08T17:32:47;14.82;;;4.05;;
79687;SDS011;69155;49.464;2.108;2023-10-08T17:35:13;12.38;;;3.65;;
79687;SDS011;69155;49.464;2.108;2023-10-08T17:37:38;8.48;;;3.60;;
79687;SDS011;69155;49.464;2.108;2023-10-08T17:40:04;11.77;;;3.92;;
79687;SDS011;69155;49.464;2.108;2023-10-08T17:42:30;8.52;;;3.88;;
79687;SDS011;69155;49.464;2.108;2023-10-08T17:44:55;10.85;;;4.00;;
79687;SDS011;69155;49.464;2.108;2023-10-08T17:47:23;9.87;;;3.97;;
79687;SDS011;69155;49.464;2.108;2023-10-08T17:49:49;8.40;;;3.95;;
79687;SDS011;69155;49.464;2.108;2023-10-08T17:52:14;6.78;;;3.70;;
79687;SDS011;69155;49.464;2.108;2023-10-08T17:54:39;8.40;;;3.33;;
79687;SDS011;69155;49.464;2.108;2023-10-08T17:57:10;7.53;;;4.10;;
79687;SDS011;69155;49.464;2.108;2023-10-08T17:59:39;11.70;;;3.85;;
79687;SDS011;69155;49.464;2.108;2023-10-08T18:02:05;12.88;;;4.15;;
79687;SDS011;69155;49.464;2.108;2023-10-08T18:04:31;9.35;;;4.07;;
79687;SDS011;69155;49.464;2.108;2023-10-08T18:06:57;8.65;;;3.88;;
79687;SDS011;69155;49.464;2.108;2023-10-08T18:09:22;12.87;;;4.77;;
79687;SDS011;69155;49.464;2.108;2023-10-08T18:14:43;9.60;;;3.78;;
79687;SDS011;69155;49.464;2.108;2023-10-08T18:17:14;8.15;;;3.28;;
79687;SDS011;69155;49.464;2.108;2023-10-08T18:19:44;11.82;;;4.78;;
79687;SDS011;69155;49.464;2.108;2023-10-08T18:22:10;9.85;;;3.78;;
79687;SDS011;69155;49.464;2.108;2023-10-08T18:24:35;11.60;;;4.53;;
79687;SDS011;69155;49.464;2.108;2023-10-08T18:27:03;7.32;;;3.58;;
79687;SDS011;69155;49.464;2.108;2023-10-08T18:29:36;10.20;;;3.53;;
79687;SDS011;69155;49.464;2.108;2023-10-08T18:32:20;8.00;;;3.60;;
79687;SDS011;69155;49.464;2.108;2023-10-08T18:34:48;5.53;;;3.30;;
79687;SDS011;69155;49.464;2.108;2023-10-08T18:37:18;6.38;;;3.42;;
79687;SDS011;69155;49.464;2.108;2023-10-08T18:39:53;7.90;;;3.00;;
79687;SDS011;69155;49.464;2.108;2023-10-08T18:49:22;9.90;;;4.28;;
79687;SDS011;69155;49.464;2.108;2023-10-08T18:52:01;10.38;;;3.88;;
79687;SDS011;69155;49.464;2.108;2023-10-08T18:54:29;8.75;;;3.13;;
79687;SDS011;69155;49.464;2.108;2023-10-08T18:56:55;11.98;;;3.40;;
79687;SDS011;69155;49.464;2.108;2023-10-08T18:59:20;6.87;;;3.77;;